createdAt,value
2023-12-09T00:00:28.376Z,6.60
2023-12-09T00:02:54.917Z,6.59
2023-12-09T00:05:21.532Z,6.57
2023-12-09T00:07:48.140Z,6.58
2023-12-09T00:10:14.798Z,6.59
2023-12-09T00:12:41.307Z,6.59
2023-12-09T00:15:08.106Z,6.59
2023-12-09T00:17:35.238Z,6.59
2023-12-09T00:20:01.916Z,6.60
2023-12-09T00:22:28.746Z,6.61
2023-12-09T00:24:55.452Z,6.62
2023-12-09T00:27:22.050Z,6.63
2023-12-09T00:29:48.753Z,6.63
2023-12-09T00:32:15.413Z,6.63
2023-12-09T00:34:41.988Z,6.63
2023-12-09T00:37:09.089Z,6.62
2023-12-09T00:39:35.665Z,6.60
2023-12-09T00:42:02.259Z,6.60
2023-12-09T00:44:28.778Z,6.59
2023-12-09T00:46:55.262Z,6.58
2023-12-09T00:49:21.883Z,6.59
2023-12-09T00:51:48.560Z,6.59
2023-12-09T00:54:15.061Z,6.58
2023-12-09T00:56:41.636Z,6.58
2023-12-09T00:59:08.500Z,6.56
2023-12-09T01:01:35.497Z,6.56
2023-12-09T01:04:02.847Z,6.54
2023-12-09T01:06:30.387Z,6.54
2023-12-09T01:08:57.161Z,6.53
2023-12-09T01:11:25.207Z,6.52
2023-12-09T01:13:51.802Z,6.50
2023-12-09T01:16:18.416Z,6.49
2023-12-09T01:18:44.989Z,6.47
2023-12-09T01:21:11.637Z,6.45
2023-12-09T01:23:39.670Z,6.45
2023-12-09T01:26:08.128Z,6.44
2023-12-09T01:28:34.794Z,6.42
2023-12-09T01:31:01.272Z,6.41
2023-12-09T01:33:27.891Z,6.38
2023-12-09T01:35:54.574Z,6.33
2023-12-09T01:38:21.164Z,6.31
2023-12-09T01:40:54.804Z,6.30
2023-12-09T01:43:22.321Z,6.27
2023-12-09T01:45:52.285Z,6.24
2023-12-09T01:48:20.444Z,6.21
2023-12-09T01:50:47.586Z,6.19
2023-12-09T01:53:14.264Z,6.17
2023-12-09T01:55:42.179Z,6.15
2023-12-09T01:58:10.131Z,6.13
2023-12-09T02:00:40.054Z,6.09
2023-12-09T02:03:07.074Z,6.07
2023-12-09T02:05:33.762Z,6.06
2023-12-09T02:08:00.232Z,6.05
2023-12-09T02:10:27.680Z,6.02
2023-12-09T02:13:07.886Z,6.01
2023-12-09T02:15:42.584Z,6.02
2023-12-09T02:18:09.567Z,6.01
2023-12-09T02:20:36.160Z,6.01
2023-12-09T02:23:06.283Z,6.00
2023-12-09T02:25:33.788Z,5.98
2023-12-09T02:28:05.536Z,5.96
2023-12-09T02:31:00.477Z,5.97
2023-12-09T02:33:27.749Z,5.94
2023-12-09T02:35:56.444Z,5.91
2023-12-09T02:38:24.291Z,5.88
2023-12-09T02:40:51.891Z,5.85
2023-12-09T02:43:18.822Z,5.82
2023-12-09T02:45:49.408Z,5.82
2023-12-09T02:48:16.079Z,5.81
2023-12-09T02:50:42.707Z,5.81
2023-12-09T02:53:09.231Z,5.78
2023-12-09T02:55:35.752Z,5.77
2023-12-09T02:58:02.197Z,5.76
2023-12-09T03:00:28.906Z,5.74
2023-12-09T03:02:55.457Z,5.70
2023-12-09T03:05:22.008Z,5.69
2023-12-09T03:07:48.577Z,5.68
2023-12-09T03:10:15.145Z,5.66
2023-12-09T03:12:41.687Z,5.65
2023-12-09T03:15:09.065Z,5.65
2023-12-09T03:17:36.075Z,5.65
2023-12-09T03:20:04.200Z,5.63
2023-12-09T03:22:30.851Z,5.63
2023-12-09T03:24:57.415Z,5.64
2023-12-09T03:27:24.011Z,5.63
2023-12-09T03:29:50.559Z,5.63
2023-12-09T03:32:17.102Z,5.63
2023-12-09T03:34:46.845Z,5.62
2023-12-09T03:37:13.413Z,5.61
2023-12-09T03:39:39.919Z,5.61
2023-12-09T03:42:06.489Z,5.61
2023-12-09T03:44:33.112Z,5.60
2023-12-09T03:47:00.747Z,5.60
2023-12-09T03:49:29.602Z,5.60
2023-12-09T03:51:56.175Z,5.58
2023-12-09T03:54:22.718Z,5.57
2023-12-09T03:56:49.801Z,5.56
2023-12-09T03:59:16.353Z,5.55
2023-12-09T04:01:50.038Z,5.54
2023-12-09T04:04:17.274Z,5.52
2023-12-09T04:06:43.810Z,5.50
2023-12-09T04:09:12.971Z,5.50
2023-12-09T04:11:39.753Z,5.52
2023-12-09T04:14:06.525Z,5.51
2023-12-09T04:16:33.083Z,5.50
2023-12-09T04:18:59.801Z,5.49
2023-12-09T04:21:26.510Z,5.49
2023-12-09T04:23:53.139Z,5.47
2023-12-09T04:26:20.185Z,5.46
2023-12-09T04:28:47.762Z,5.44
2023-12-09T04:31:14.289Z,5.42
2023-12-09T04:33:41.760Z,5.42
2023-12-09T04:36:08.818Z,5.40
2023-12-09T04:38:35.318Z,5.39
2023-12-09T04:41:02.642Z,5.37
2023-12-09T04:43:29.320Z,5.37
2023-12-09T04:45:55.931Z,5.35
2023-12-09T04:48:22.686Z,5.35
2023-12-09T04:50:49.641Z,5.35
2023-12-09T04:53:16.219Z,5.32
2023-12-09T04:55:42.727Z,5.32
2023-12-09T04:58:09.217Z,5.29
2023-12-09T05:00:35.818Z,5.28
2023-12-09T05:03:02.389Z,5.27
2023-12-09T05:05:29.119Z,5.25
2023-12-09T05:07:55.655Z,5.23
2023-12-09T05:10:22.250Z,5.21
2023-12-09T05:12:49.386Z,5.19
2023-12-09T05:15:16.181Z,5.16
2023-12-09T05:17:42.901Z,5.14
2023-12-09T05:20:11.101Z,5.12
2023-12-09T05:22:38.251Z,5.12
2023-12-09T05:25:06.043Z,5.12
2023-12-09T05:27:33.102Z,5.11
2023-12-09T05:29:59.677Z,5.12
2023-12-09T05:32:26.480Z,5.09
2023-12-09T05:34:53.122Z,5.09
2023-12-09T05:37:19.862Z,5.10
2023-12-09T05:39:46.513Z,5.10
2023-12-09T05:42:13.018Z,5.12
2023-12-09T05:44:39.610Z,5.12
2023-12-09T05:47:06.233Z,5.13
2023-12-09T05:49:32.820Z,5.14
2023-12-09T05:51:59.378Z,5.15
2023-12-09T05:54:25.900Z,5.15
2023-12-09T05:56:52.393Z,5.16
2023-12-09T05:59:18.925Z,5.17
2023-12-09T06:01:45.435Z,5.17
2023-12-09T06:04:12.000Z,5.17
2023-12-09T06:06:38.573Z,5.16
2023-12-09T06:09:05.936Z,5.16
2023-12-09T06:11:32.747Z,5.16
2023-12-09T06:13:59.390Z,5.16
2023-12-09T06:16:26.002Z,5.16
2023-12-09T06:18:52.869Z,5.17
2023-12-09T06:21:23.480Z,5.19
2023-12-09T06:23:50.903Z,5.20
2023-12-09T06:26:18.093Z,5.22
2023-12-09T06:28:44.674Z,5.23
2023-12-09T06:31:14.096Z,5.26
2023-12-09T06:33:40.842Z,5.29
2023-12-09T06:36:07.862Z,5.32
2023-12-09T06:38:35.528Z,5.33
2023-12-09T06:41:02.071Z,5.36
2023-12-09T06:43:28.650Z,5.38
2023-12-09T06:45:55.180Z,5.40
2023-12-09T06:48:21.907Z,5.42
2023-12-09T06:50:48.418Z,5.43
2023-12-09T06:53:15.032Z,5.44
2023-12-09T06:55:41.982Z,5.47
2023-12-09T06:58:08.796Z,5.48
2023-12-09T07:00:35.402Z,5.47
2023-12-09T07:03:02.409Z,5.49
2023-12-09T07:05:29.557Z,5.50
2023-12-09T07:07:56.378Z,5.49
2023-12-09T07:10:22.839Z,5.51
2023-12-09T07:12:49.694Z,5.51
2023-12-09T07:15:16.835Z,5.52
2023-12-09T07:17:43.679Z,5.53
2023-12-09T07:20:11.149Z,5.53
2023-12-09T07:22:37.749Z,5.53
2023-12-09T07:25:04.451Z,5.54
2023-12-09T07:27:31.105Z,5.55
2023-12-09T07:29:57.648Z,5.55
2023-12-09T07:32:24.289Z,5.56
2023-12-09T07:34:53.731Z,5.57
2023-12-09T07:37:23.194Z,5.58
2023-12-09T07:39:49.756Z,5.59
2023-12-09T07:42:16.361Z,5.60
2023-12-09T07:44:42.916Z,5.61
2023-12-09T07:47:09.373Z,5.63
2023-12-09T07:49:36.007Z,5.62
2023-12-09T07:52:02.735Z,5.63
2023-12-09T07:54:29.300Z,5.63
2023-12-09T07:56:55.798Z,5.64
2023-12-09T07:59:22.408Z,5.64
2023-12-09T08:01:48.952Z,5.66
2023-12-09T08:04:16.020Z,5.68
2023-12-09T08:06:42.603Z,5.70
2023-12-09T08:09:10.572Z,5.73
2023-12-09T08:11:37.123Z,5.74
2023-12-09T08:14:03.566Z,5.76
2023-12-09T08:16:30.071Z,5.78
2023-12-09T08:18:56.724Z,5.80
2023-12-09T08:21:25.380Z,5.82
2023-12-09T08:23:52.003Z,5.84
2023-12-09T08:26:19.325Z,5.84
2023-12-09T08:28:46.474Z,5.84
2023-12-09T08:31:13.048Z,5.86
2023-12-09T08:33:40.754Z,5.87
2023-12-09T08:36:08.175Z,5.87
2023-12-09T08:38:34.831Z,5.89
2023-12-09T08:41:01.330Z,5.90
2023-12-09T08:43:27.863Z,5.91
2023-12-09T08:45:54.435Z,5.92
2023-12-09T08:48:21.275Z,5.94
2023-12-09T08:50:47.886Z,5.94
2023-12-09T08:53:14.369Z,5.96
2023-12-09T08:55:40.831Z,5.96
2023-12-09T08:58:07.344Z,5.98
2023-12-09T09:00:33.903Z,5.98
2023-12-09T09:03:00.883Z,6.00
2023-12-09T09:05:27.394Z,6.01
2023-12-09T09:07:54.008Z,6.04
2023-12-09T09:10:20.680Z,6.06
2023-12-09T09:12:48.322Z,6.08
2023-12-09T09:15:16.751Z,6.09
2023-12-09T09:17:43.746Z,6.09
2023-12-09T09:20:11.552Z,6.10
2023-12-09T09:22:38.668Z,6.13
2023-12-09T09:25:05.695Z,6.14
2023-12-09T09:27:32.426Z,6.16
2023-12-09T09:29:59.091Z,6.17
2023-12-09T09:32:25.844Z,6.18
2023-12-09T09:34:52.828Z,6.18
2023-12-09T09:37:19.466Z,6.19
2023-12-09T09:39:46.159Z,6.19
2023-12-09T09:42:31.120Z,6.20
2023-12-09T09:45:15.842Z,6.21
2023-12-09T09:47:44.184Z,6.23
2023-12-09T09:50:11.698Z,6.25
2023-12-09T09:52:41.512Z,6.30
2023-12-09T09:55:09.146Z,6.35
2023-12-09T09:57:36.057Z,6.39
2023-12-09T10:00:03.020Z,6.45
2023-12-09T10:02:37.955Z,6.49
2023-12-09T10:05:04.695Z,6.52
2023-12-09T10:07:31.708Z,6.55
2023-12-09T10:09:59.070Z,6.59
2023-12-09T10:12:26.101Z,6.61
2023-12-09T10:14:53.399Z,6.62
2023-12-09T10:17:20.017Z,6.66
2023-12-09T10:19:46.624Z,6.69
2023-12-09T10:22:13.244Z,6.75
2023-12-09T10:24:45.914Z,6.78
2023-12-09T10:27:15.597Z,6.83
2023-12-09T10:29:44.802Z,6.86
2023-12-09T10:32:13.387Z,6.90
2023-12-09T10:34:43.759Z,6.92
2023-12-09T10:37:11.134Z,6.98
2023-12-09T10:39:37.812Z,7.00
2023-12-09T10:42:07.445Z,7.02
2023-12-09T10:44:34.805Z,7.02
2023-12-09T10:47:01.314Z,7.04
2023-12-09T10:49:28.056Z,7.07
2023-12-09T10:51:54.800Z,7.10
2023-12-09T10:54:21.462Z,7.12
2023-12-09T10:56:49.202Z,7.14
2023-12-09T10:59:18.484Z,7.17
2023-12-09T11:01:48.740Z,7.17
2023-12-09T11:04:16.277Z,7.20
2023-12-09T11:06:46.576Z,7.20
2023-12-09T11:09:15.703Z,7.23
2023-12-09T11:11:43.025Z,7.25
2023-12-09T11:14:12.871Z,7.27
2023-12-09T11:16:43.748Z,7.27
2023-12-09T11:19:18.012Z,7.29
2023-12-09T11:21:48.639Z,7.30
2023-12-09T11:24:18.236Z,7.33
2023-12-09T11:26:47.168Z,7.33
2023-12-09T11:29:16.215Z,7.36
2023-12-09T11:31:47.821Z,7.39
2023-12-09T11:34:15.844Z,7.39
2023-12-09T11:36:43.722Z,7.44
2023-12-09T11:39:21.686Z,7.44
2023-12-09T11:41:49.457Z,7.46
2023-12-09T11:44:16.297Z,7.47
2023-12-09T11:46:43.858Z,7.52
2023-12-09T11:49:10.715Z,7.55
2023-12-09T11:51:38.963Z,7.55
2023-12-09T11:54:08.773Z,7.58
2023-12-09T11:56:36.437Z,7.59
2023-12-09T11:59:03.335Z,7.56
2023-12-09T12:01:31.534Z,7.56
2023-12-09T12:03:58.336Z,7.56
2023-12-09T12:06:25.361Z,7.53
2023-12-09T12:08:53.477Z,7.54
2023-12-09T12:11:22.716Z,7.53
2023-12-09T12:13:50.058Z,7.54
2023-12-09T12:16:17.403Z,7.55
2023-12-09T12:18:45.364Z,7.55
2023-12-09T12:21:12.204Z,7.56
2023-12-09T12:23:40.454Z,7.56
2023-12-09T12:26:07.267Z,7.55
2023-12-09T12:28:33.943Z,7.54
2023-12-09T12:31:01.156Z,7.54
2023-12-09T12:33:32.365Z,7.55
2023-12-09T12:36:00.089Z,7.55
2023-12-09T12:38:27.685Z,7.56
2023-12-09T12:40:55.451Z,7.61
2023-12-09T12:43:22.721Z,7.63
2023-12-09T12:45:51.351Z,7.61
2023-12-09T12:48:18.571Z,7.59
2023-12-09T12:50:49.655Z,7.55
2023-12-09T12:53:18.885Z,7.54
2023-12-09T12:55:46.084Z,7.51
2023-12-09T12:58:13.031Z,7.49
2023-12-09T13:00:40.616Z,7.49
2023-12-09T13:03:08.428Z,7.46
2023-12-09T13:05:36.070Z,7.45
2023-12-09T13:08:02.996Z,7.44
2023-12-09T13:10:29.716Z,7.40
2023-12-09T13:12:56.368Z,7.38
2023-12-09T13:15:23.793Z,7.36
2023-12-09T13:17:50.767Z,7.35
2023-12-09T13:20:17.775Z,7.33
2023-12-09T13:22:46.844Z,7.31
2023-12-09T13:25:15.112Z,7.30
2023-12-09T13:27:43.051Z,7.30
2023-12-09T13:30:10.788Z,7.29
2023-12-09T13:32:38.586Z,7.27
2023-12-09T13:35:06.744Z,7.26
2023-12-09T13:37:34.015Z,7.26
2023-12-09T13:40:01.861Z,7.26
2023-12-09T13:42:29.451Z,7.25
2023-12-09T13:44:56.299Z,7.23
2023-12-09T13:47:23.545Z,7.23
2023-12-09T13:49:50.406Z,7.20
2023-12-09T13:52:17.661Z,7.18
2023-12-09T13:54:44.599Z,7.16
2023-12-09T13:57:11.642Z,7.15
2023-12-09T13:59:38.391Z,7.14
2023-12-09T14:02:06.745Z,7.12
2023-12-09T14:04:33.709Z,7.11
2023-12-09T14:07:00.521Z,7.11
2023-12-09T14:09:28.345Z,7.09
2023-12-09T14:11:55.141Z,7.10
2023-12-09T14:14:21.829Z,7.08
2023-12-09T14:16:48.524Z,7.07
2023-12-09T14:19:15.581Z,7.05
2023-12-09T14:21:42.370Z,7.05
2023-12-09T14:24:09.935Z,7.03
2023-12-09T14:26:37.717Z,7.03
2023-12-09T14:29:04.310Z,7.01
2023-12-09T14:31:30.958Z,6.99
2023-12-09T14:33:58.020Z,6.96
2023-12-09T14:36:25.180Z,6.93
2023-12-09T14:38:52.452Z,6.92
2023-12-09T14:41:19.410Z,6.90
2023-12-09T14:43:47.218Z,6.89
2023-12-09T14:46:15.270Z,6.88
2023-12-09T14:48:43.340Z,6.87
2023-12-09T14:51:10.283Z,6.86
2023-12-09T14:53:36.896Z,6.83
2023-12-09T14:56:03.845Z,6.82
2023-12-09T14:58:30.763Z,6.82
2023-12-09T15:00:57.529Z,6.81
2023-12-09T15:03:24.269Z,6.80
2023-12-09T15:05:51.063Z,6.78
2023-12-09T15:08:17.639Z,6.77
2023-12-09T15:10:44.276Z,6.75
2023-12-09T15:13:10.840Z,6.73
2023-12-09T15:15:37.521Z,6.72
2023-12-09T15:18:05.876Z,6.72
2023-12-09T15:20:33.404Z,6.70
2023-12-09T15:23:00.111Z,6.67
2023-12-09T15:25:26.924Z,6.67
2023-12-09T15:27:53.674Z,6.66
2023-12-09T15:30:20.620Z,6.67
2023-12-09T15:32:48.586Z,6.66
2023-12-09T15:35:15.441Z,6.66
2023-12-09T15:37:43.687Z,6.66
2023-12-09T15:40:12.204Z,6.65
2023-12-09T15:42:39.118Z,6.67
2023-12-09T15:45:06.492Z,6.66
2023-12-09T15:47:33.579Z,6.63
2023-12-09T15:50:00.464Z,6.64
2023-12-09T15:52:27.553Z,6.65
2023-12-09T15:54:54.515Z,6.66
2023-12-09T15:57:21.679Z,6.65
2023-12-09T15:59:49.250Z,6.65
2023-12-09T16:02:15.916Z,6.66
2023-12-09T16:04:42.606Z,6.65
2023-12-09T16:07:09.369Z,6.65
2023-12-09T16:09:40.955Z,6.65
2023-12-09T16:12:11.486Z,6.64
2023-12-09T16:14:38.170Z,6.65
2023-12-09T16:17:05.079Z,6.63
2023-12-09T16:19:31.823Z,6.64
2023-12-09T16:21:58.479Z,6.64
2023-12-09T16:24:28.575Z,6.65
2023-12-09T16:26:59.218Z,6.65
2023-12-09T16:29:25.788Z,6.67
2023-12-09T16:31:52.420Z,6.67
2023-12-09T16:34:19.096Z,6.70
2023-12-09T16:36:45.861Z,6.72
2023-12-09T16:39:14.091Z,6.72
2023-12-09T16:41:41.207Z,6.71
2023-12-09T16:44:10.591Z,6.73
2023-12-09T16:46:39.043Z,6.75
2023-12-09T16:49:06.038Z,6.75
2023-12-09T16:51:32.665Z,6.78
2023-12-09T16:53:59.280Z,6.79
2023-12-09T16:56:26.660Z,6.80
2023-12-09T16:58:53.471Z,6.81
2023-12-09T17:01:20.095Z,6.84
2023-12-09T17:03:47.379Z,6.85
2023-12-09T17:06:14.553Z,6.86
2023-12-09T17:08:41.398Z,6.86
2023-12-09T17:11:08.174Z,6.87
2023-12-09T17:13:34.834Z,6.88
2023-12-09T17:16:01.481Z,6.90
2023-12-09T17:18:28.324Z,6.91
2023-12-09T17:20:55.288Z,6.92
2023-12-09T17:23:21.969Z,6.92
2023-12-09T17:25:48.572Z,6.93
2023-12-09T17:28:15.139Z,6.94
2023-12-09T17:30:41.792Z,6.95
2023-12-09T17:33:09.214Z,6.96
2023-12-09T17:35:35.918Z,6.99
2023-12-09T17:38:02.596Z,7.03
2023-12-09T17:40:29.360Z,7.04
2023-12-09T17:42:56.188Z,7.06
2023-12-09T17:45:22.955Z,7.09
2023-12-09T17:47:49.712Z,7.11
2023-12-09T17:50:17.541Z,7.14
2023-12-09T17:52:44.351Z,7.18
2023-12-09T17:55:11.034Z,7.22
2023-12-09T17:57:37.838Z,7.26
2023-12-09T18:00:05.326Z,7.31
2023-12-09T18:02:34.376Z,7.35
2023-12-09T18:05:01.068Z,7.42
2023-12-09T18:07:27.811Z,7.47
2023-12-09T18:09:55.038Z,7.53
2023-12-09T18:12:21.686Z,7.57
2023-12-09T18:14:48.268Z,7.67
2023-12-09T18:17:14.875Z,7.74
2023-12-09T18:19:41.564Z,7.82
2023-12-09T18:22:08.218Z,7.94
2023-12-09T18:24:34.946Z,8.04
2023-12-09T18:27:01.725Z,8.14
2023-12-09T18:29:28.816Z,8.20
2023-12-09T18:31:55.456Z,8.27
2023-12-09T18:34:23.383Z,8.41
2023-12-09T18:36:50.594Z,8.49
2023-12-09T18:39:20.794Z,8.57
2023-12-09T18:41:47.497Z,8.67
2023-12-09T18:44:14.152Z,8.75
2023-12-09T18:46:41.059Z,8.78
2023-12-09T18:49:09.680Z,8.82
2023-12-09T18:51:36.407Z,8.84
2023-12-09T18:54:03.055Z,8.83
2023-12-09T18:56:29.678Z,8.83
2023-12-09T18:58:56.306Z,8.80
2023-12-09T19:01:23.264Z,8.78
2023-12-09T19:03:50.162Z,8.77
2023-12-09T19:06:16.910Z,8.75
2023-12-09T19:08:43.638Z,8.75
2023-12-09T19:11:10.261Z,8.74
2023-12-09T19:13:36.970Z,8.70
2023-12-09T19:16:04.084Z,8.63
2023-12-09T19:18:30.851Z,8.58
2023-12-09T19:20:57.572Z,8.56
2023-12-09T19:23:24.167Z,8.50
2023-12-09T19:25:50.896Z,8.45
2023-12-09T19:28:17.560Z,8.42
2023-12-09T19:30:44.193Z,8.38
2023-12-09T19:33:10.918Z,8.31
2023-12-09T19:35:37.580Z,8.24
2023-12-09T19:38:04.480Z,8.20
2023-12-09T19:40:33.547Z,8.16
2023-12-09T19:43:00.263Z,8.14
2023-12-09T19:45:27.097Z,8.13
2023-12-09T19:47:56.270Z,8.10
2023-12-09T19:50:24.924Z,8.08
2023-12-09T19:52:52.106Z,8.10
2023-12-09T19:55:18.740Z,8.10
2023-12-09T19:57:45.689Z,8.13
2023-12-09T20:00:15.744Z,8.13
2023-12-09T20:02:45.247Z,8.14
2023-12-09T20:05:12.280Z,8.14
2023-12-09T20:07:39.118Z,8.14
2023-12-09T20:10:06.408Z,8.15
2023-12-09T20:12:33.142Z,8.14
2023-12-09T20:14:59.822Z,8.17
2023-12-09T20:17:26.689Z,8.15
2023-12-09T20:19:53.428Z,8.15
2023-12-09T20:22:21.330Z,8.18
2023-12-09T20:24:48.132Z,8.19
2023-12-09T20:27:14.962Z,8.19
2023-12-09T20:29:41.911Z,8.21
2023-12-09T20:32:08.541Z,8.26
2023-12-09T20:34:35.238Z,8.27
2023-12-09T20:37:02.603Z,8.25
2023-12-09T20:39:29.359Z,8.26
2023-12-09T20:41:56.021Z,8.26
2023-12-09T20:44:22.670Z,8.29
2023-12-09T20:46:49.336Z,8.30
2023-12-09T20:49:18.091Z,8.35
2023-12-09T20:51:45.959Z,8.35
2023-12-09T20:54:13.107Z,8.34
2023-12-09T20:56:39.828Z,8.34
2023-12-09T20:59:09.110Z,8.38
2023-12-09T21:01:54.974Z,8.40
2023-12-09T21:04:22.872Z,8.46
2023-12-09T21:06:50.086Z,8.50
2023-12-09T21:09:16.740Z,8.49
2023-12-09T21:11:43.871Z,8.46
2023-12-09T21:14:10.448Z,8.43
2023-12-09T21:16:37.075Z,8.44
2023-12-09T21:19:03.941Z,8.43
2023-12-09T21:21:34.545Z,8.43
2023-12-09T21:24:01.363Z,8.42
2023-12-09T21:26:28.380Z,8.41
2023-12-09T21:28:55.061Z,8.43
2023-12-09T21:31:21.686Z,8.41
2023-12-09T21:33:48.456Z,8.40
2023-12-09T21:36:16.335Z,8.40
2023-12-09T21:38:43.891Z,8.39
2023-12-09T21:41:19.314Z,8.40
2023-12-09T21:43:47.254Z,8.40
2023-12-09T21:46:13.855Z,8.38
2023-12-09T21:48:40.583Z,8.40
2023-12-09T21:51:07.526Z,8.41
2023-12-09T21:53:34.054Z,8.39
2023-12-09T21:56:01.016Z,8.37
2023-12-09T21:58:27.967Z,8.35
2023-12-09T22:00:54.747Z,8.34
2023-12-09T22:03:21.537Z,8.29
2023-12-09T22:05:48.160Z,8.23
2023-12-09T22:08:14.801Z,8.19
2023-12-09T22:10:41.411Z,8.17
2023-12-09T22:13:08.534Z,8.13
2023-12-09T22:15:37.413Z,8.08
2023-12-09T22:18:04.528Z,8.03
2023-12-09T22:20:31.978Z,7.98
2023-12-09T22:22:58.805Z,7.95
2023-12-09T22:25:25.660Z,7.92
2023-12-09T22:27:52.258Z,7.89
2023-12-09T22:30:19.242Z,7.85
2023-12-09T22:32:45.884Z,7.80
2023-12-09T22:35:12.550Z,7.78
2023-12-09T22:37:40.694Z,7.76
2023-12-09T22:40:09.175Z,7.75
2023-12-09T22:42:36.934Z,7.78
2023-12-09T22:45:05.477Z,7.83
2023-12-09T22:47:33.013Z,7.85
2023-12-09T22:49:59.728Z,7.86
2023-12-09T22:52:26.492Z,7.91
2023-12-09T22:54:53.819Z,7.92
2023-12-09T22:57:20.585Z,7.93
2023-12-09T22:59:47.348Z,7.90
2023-12-09T23:02:13.948Z,7.91
2023-12-09T23:04:40.992Z,7.91
2023-12-09T23:07:07.888Z,7.92
2023-12-09T23:09:35.185Z,7.94
2023-12-09T23:12:01.986Z,7.95
2023-12-09T23:14:28.683Z,7.96
2023-12-09T23:16:56.616Z,7.96
2023-12-09T23:19:24.239Z,7.95
2023-12-09T23:21:51.059Z,7.96
2023-12-09T23:24:17.862Z,7.97
2023-12-09T23:26:44.524Z,7.97
2023-12-09T23:29:11.190Z,7.98
2023-12-09T23:31:41.713Z,7.99
2023-12-09T23:34:10.379Z,8.01
2023-12-09T23:36:37.499Z,8.01
2023-12-09T23:39:04.217Z,8.01
2023-12-09T23:41:30.837Z,8.00
2023-12-09T23:43:57.433Z,8.00
2023-12-09T23:46:24.147Z,8.00
2023-12-09T23:48:50.792Z,8.00
2023-12-09T23:51:17.493Z,8.00
2023-12-09T23:53:44.464Z,8.00
2023-12-09T23:56:11.093Z,8.02
2023-12-09T23:58:37.777Z,8.03
